createdAt,value
2022-11-17T00:00:29.200Z,0.00
2022-11-17T00:01:29.190Z,0.00
2022-11-17T00:02:29.304Z,0.00
2022-11-17T00:03:29.150Z,0.00
2022-11-17T00:04:29.356Z,0.00
2022-11-17T00:05:29.135Z,0.00
2022-11-17T00:06:29.114Z,0.00
2022-11-17T00:07:29.153Z,0.00
2022-11-17T00:08:29.108Z,0.00
2022-11-17T00:09:29.092Z,0.00
2022-11-17T00:10:29.303Z,0.00
2022-11-17T00:11:29.062Z,0.00
2022-11-17T00:12:32.832Z,0.00
2022-11-17T00:13:29.047Z,0.00
2022-11-17T00:14:29.034Z,0.00
2022-11-17T00:15:29.022Z,0.00
2022-11-17T00:16:29.014Z,0.00
2022-11-17T00:17:29.004Z,0.00
2022-11-17T00:18:28.986Z,0.00
2022-11-17T00:19:29.054Z,0.00
2022-11-17T00:20:28.960Z,0.00
2022-11-17T00:21:28.958Z,0.00
2022-11-17T00:22:28.947Z,0.00
2022-11-17T00:23:28.918Z,0.00
2022-11-17T00:24:28.918Z,0.00
2022-11-17T00:25:28.909Z,0.00
2022-11-17T00:26:28.901Z,0.00
2022-11-17T00:27:29.197Z,0.00
2022-11-17T00:28:28.880Z,0.00
2022-11-17T00:29:28.871Z,0.00
2022-11-17T00:30:28.837Z,0.00
2022-11-17T00:31:28.842Z,0.00
2022-11-17T00:32:28.808Z,0.00
2022-11-17T00:33:29.088Z,0.00
2022-11-17T00:34:28.798Z,0.00
2022-11-17T00:35:28.792Z,0.00
2022-11-17T00:36:28.782Z,0.00
2022-11-17T00:37:29.065Z,0.00
2022-11-17T00:38:28.752Z,0.00
2022-11-17T00:39:29.089Z,0.00
2022-11-17T00:40:28.719Z,0.00
2022-11-17T00:41:28.710Z,0.00
2022-11-17T00:42:28.705Z,0.00
2022-11-17T00:43:28.681Z,0.00
2022-11-17T00:44:28.674Z,0.00
2022-11-17T00:45:28.932Z,0.00
2022-11-17T00:46:28.666Z,0.00
2022-11-17T00:47:28.947Z,0.00
2022-11-17T00:48:28.637Z,0.00
2022-11-17T00:49:28.625Z,0.00
2022-11-17T00:50:28.601Z,0.00
2022-11-17T00:51:28.614Z,0.00
2022-11-17T00:52:28.595Z,0.00
2022-11-17T00:53:28.895Z,0.00
2022-11-17T00:54:28.881Z,0.00
2022-11-17T00:55:28.620Z,0.00
2022-11-17T00:56:28.548Z,0.00
2022-11-17T00:57:28.524Z,0.00
2022-11-17T00:58:28.514Z,0.00
2022-11-17T00:59:28.517Z,0.00
2022-11-17T01:00:28.768Z,0.00
2022-11-17T01:01:28.525Z,0.00
2022-11-17T01:02:28.465Z,0.00
2022-11-17T01:03:28.456Z,0.00
2022-11-17T01:04:28.436Z,0.00
2022-11-17T01:05:32.859Z,0.00
2022-11-17T01:06:28.700Z,0.00
2022-11-17T01:07:28.502Z,0.00
2022-11-17T01:08:28.410Z,0.00
2022-11-17T01:09:28.638Z,0.00
2022-11-17T01:10:28.378Z,0.00
2022-11-17T01:11:28.378Z,0.00
2022-11-17T01:12:28.355Z,0.00
2022-11-17T01:13:28.346Z,0.00
2022-11-17T01:14:28.341Z,0.00
2022-11-17T01:15:28.538Z,0.00
2022-11-17T01:16:28.300Z,0.00
2022-11-17T01:17:28.498Z,0.00
2022-11-17T01:18:28.289Z,0.00
2022-11-17T01:19:28.279Z,0.00
2022-11-17T01:20:28.272Z,0.00
2022-11-17T01:21:28.263Z,0.00
2022-11-17T01:22:28.242Z,0.00
2022-11-17T01:23:28.491Z,0.00
2022-11-17T01:24:28.225Z,0.00
2022-11-17T01:25:28.214Z,0.00
2022-11-17T01:26:28.204Z,0.00
2022-11-17T01:27:28.206Z,0.00
2022-11-17T01:28:28.162Z,0.00
2022-11-17T01:29:28.487Z,0.00
2022-11-17T01:30:28.159Z,0.00
2022-11-17T01:31:28.159Z,0.00
2022-11-17T01:32:28.136Z,0.00
2022-11-17T01:33:28.117Z,0.00
2022-11-17T01:34:28.135Z,0.00
2022-11-17T01:35:28.117Z,0.00
2022-11-17T01:36:28.085Z,0.00
2022-11-17T01:37:28.064Z,0.00
2022-11-17T01:38:28.067Z,0.00
2022-11-17T01:39:28.042Z,0.00
2022-11-17T01:40:28.350Z,0.00
2022-11-17T01:41:28.033Z,0.00
2022-11-17T01:42:28.014Z,0.00
2022-11-17T01:43:28.005Z,0.00
2022-11-17T01:44:28.295Z,0.00
2022-11-17T01:45:27.976Z,0.00
2022-11-17T01:46:27.958Z,0.00
2022-11-17T01:47:27.948Z,0.00
2022-11-17T01:48:27.949Z,0.00
2022-11-17T01:49:27.959Z,0.00
2022-11-17T01:50:28.132Z,0.00
2022-11-17T01:51:27.928Z,0.00
2022-11-17T01:52:28.219Z,0.00
2022-11-17T01:53:27.899Z,0.00
2022-11-17T01:54:27.882Z,0.00
2022-11-17T01:55:27.869Z,0.00
2022-11-17T01:56:27.839Z,0.00
2022-11-17T01:57:27.851Z,0.00
2022-11-17T01:58:28.074Z,0.00
2022-11-17T01:59:27.828Z,0.00
2022-11-17T02:00:27.817Z,0.00
2022-11-17T02:01:27.840Z,0.00
2022-11-17T02:02:27.791Z,0.00
2022-11-17T02:03:28.081Z,0.00
2022-11-17T02:04:27.766Z,0.00
2022-11-17T02:05:27.740Z,0.00
2022-11-17T02:06:27.730Z,0.00
2022-11-17T02:07:27.833Z,0.00
2022-11-17T02:08:27.722Z,0.00
2022-11-17T02:09:28.001Z,0.00
2022-11-17T02:10:27.711Z,0.00
2022-11-17T02:11:27.692Z,0.00
2022-11-17T02:12:27.674Z,0.00
2022-11-17T02:13:27.656Z,0.00
2022-11-17T02:14:27.654Z,0.00
2022-11-17T02:15:27.665Z,0.00
2022-11-17T02:16:27.625Z,0.00
2022-11-17T02:17:27.841Z,0.00
2022-11-17T02:18:27.582Z,0.00
2022-11-17T02:19:27.582Z,0.00
2022-11-17T02:20:27.562Z,0.00
2022-11-17T02:21:27.553Z,0.00
2022-11-17T02:22:27.851Z,0.00
2022-11-17T02:23:27.524Z,0.00
2022-11-17T02:24:27.527Z,0.00
2022-11-17T02:25:27.544Z,0.00
2022-11-17T02:26:27.506Z,0.00
2022-11-17T02:27:27.796Z,0.00
2022-11-17T02:28:27.463Z,0.00
2022-11-17T02:29:27.467Z,0.00
2022-11-17T02:30:27.448Z,0.00
2022-11-17T02:31:27.448Z,0.00
2022-11-17T02:32:27.426Z,0.00
2022-11-17T02:33:27.604Z,0.00
2022-11-17T02:34:27.394Z,0.00
2022-11-17T02:35:27.407Z,0.00
2022-11-17T02:36:27.390Z,0.00
2022-11-17T02:37:27.377Z,0.00
2022-11-17T02:38:27.569Z,0.00
2022-11-17T02:39:27.335Z,0.00
2022-11-17T02:40:27.326Z,0.00
2022-11-17T02:41:27.330Z,0.00
2022-11-17T02:42:27.304Z,0.00
2022-11-17T02:43:27.311Z,0.00
2022-11-17T02:44:27.295Z,0.00
2022-11-17T02:45:27.278Z,0.00
2022-11-17T02:46:27.272Z,0.00
2022-11-17T02:47:27.267Z,0.00
2022-11-17T02:48:27.231Z,0.00
2022-11-17T02:49:27.228Z,0.00
2022-11-17T02:50:28.560Z,0.00
2022-11-17T02:51:27.212Z,0.00
2022-11-17T02:52:27.190Z,0.00
2022-11-17T02:53:27.504Z,0.00
2022-11-17T02:54:27.190Z,0.00
2022-11-17T02:55:27.192Z,0.00
2022-11-17T02:56:27.172Z,0.00
2022-11-17T02:57:27.142Z,0.00
2022-11-17T02:58:27.117Z,0.00
2022-11-17T02:59:27.373Z,0.00
2022-11-17T03:00:27.089Z,0.00
2022-11-17T03:01:27.188Z,0.00
2022-11-17T03:02:27.074Z,0.00
2022-11-17T03:03:27.355Z,0.00
2022-11-17T03:04:27.043Z,0.00
2022-11-17T03:05:27.052Z,0.00
2022-11-17T03:06:27.020Z,0.00
2022-11-17T03:07:27.114Z,0.00
2022-11-17T03:08:31.675Z,0.00
2022-11-17T03:09:28.006Z,0.00
2022-11-17T03:10:27.284Z,0.00
2022-11-17T03:11:26.961Z,0.00
2022-11-17T03:13:38.196Z,0.00
2022-11-17T03:14:38.175Z,0.00
2022-11-17T03:15:37.930Z,0.00
2022-11-17T03:16:37.911Z,0.00
2022-11-17T03:17:37.903Z,0.00
2022-11-17T03:18:38.143Z,0.00
2022-11-17T03:19:37.891Z,0.00
2022-11-17T03:20:37.861Z,0.00
2022-11-17T03:21:37.851Z,0.00
2022-11-17T03:22:38.135Z,0.00
2022-11-17T03:23:38.117Z,0.00
2022-11-17T03:24:37.832Z,0.00
2022-11-17T03:25:37.814Z,0.00
2022-11-17T03:26:37.782Z,0.00
2022-11-17T03:27:37.780Z,0.00
2022-11-17T03:28:38.093Z,0.00
2022-11-17T03:29:37.983Z,0.00
2022-11-17T03:30:38.019Z,0.00
2022-11-17T03:31:37.722Z,0.00
2022-11-17T03:32:37.713Z,0.00
2022-11-17T03:33:37.974Z,0.00
2022-11-17T03:34:37.692Z,0.00
2022-11-17T03:35:37.683Z,0.00
2022-11-17T03:36:37.981Z,0.00
2022-11-17T03:37:37.664Z,0.00
2022-11-17T03:38:37.666Z,0.00
2022-11-17T03:39:37.650Z,0.00
2022-11-17T03:40:37.634Z,0.00
2022-11-17T03:41:37.604Z,0.00
2022-11-17T03:42:37.914Z,0.00
2022-11-17T03:43:37.870Z,0.00
2022-11-17T03:44:37.578Z,0.00
2022-11-17T03:45:37.574Z,0.00
2022-11-17T03:46:37.569Z,0.00
2022-11-17T03:47:37.546Z,0.00
2022-11-17T03:48:37.821Z,0.00
2022-11-17T03:49:37.552Z,0.00
2022-11-17T03:50:37.523Z,0.00
2022-11-17T03:51:37.497Z,0.00
2022-11-17T03:52:37.497Z,0.00
2022-11-17T03:53:37.871Z,0.00
2022-11-17T03:54:37.477Z,0.00
2022-11-17T03:55:37.449Z,0.00
2022-11-17T03:56:37.451Z,0.00
2022-11-17T03:57:37.434Z,0.00
2022-11-17T03:58:37.729Z,0.00
2022-11-17T03:59:37.408Z,0.00
2022-11-17T04:00:37.388Z,0.00
2022-11-17T04:01:37.428Z,0.00
2022-11-17T04:02:37.367Z,0.00
2022-11-17T04:03:37.724Z,0.00
2022-11-17T04:04:37.634Z,0.00
2022-11-17T04:05:37.339Z,0.00
2022-11-17T04:06:37.323Z,0.00
2022-11-17T04:07:37.400Z,0.00
2022-11-17T04:08:37.313Z,0.00
2022-11-17T04:09:37.303Z,0.00
2022-11-17T04:10:37.570Z,0.00
2022-11-17T04:11:37.263Z,0.00
2022-11-17T04:12:37.249Z,0.00
2022-11-17T04:13:37.687Z,0.00
2022-11-17T04:14:37.231Z,0.00
2022-11-17T04:15:37.211Z,0.00
2022-11-17T04:16:37.214Z,0.00
2022-11-17T04:17:37.507Z,0.00
2022-11-17T04:18:37.500Z,0.00
2022-11-17T04:19:37.185Z,0.00
2022-11-17T04:20:37.157Z,0.00
2022-11-17T04:21:37.165Z,0.00
2022-11-17T04:22:37.443Z,0.00
2022-11-17T04:23:37.671Z,0.00
2022-11-17T04:24:37.112Z,0.00
2022-11-17T04:25:37.104Z,0.00
2022-11-17T04:26:37.106Z,0.00
2022-11-17T04:27:37.097Z,0.00
2022-11-17T04:28:37.341Z,0.00
2022-11-17T04:29:37.062Z,0.00
2022-11-17T04:30:37.034Z,0.00
2022-11-17T04:31:37.025Z,0.00
2022-11-17T04:32:37.029Z,0.00
2022-11-17T04:33:37.493Z,0.00
2022-11-17T04:34:37.009Z,0.00
2022-11-17T04:35:37.009Z,0.00
2022-11-17T04:36:36.982Z,0.00
2022-11-17T04:37:36.978Z,0.00
2022-11-17T04:38:36.960Z,0.00
2022-11-17T04:39:37.260Z,0.00
2022-11-17T04:40:36.956Z,0.00
2022-11-17T04:41:36.936Z,0.00
2022-11-17T04:42:36.899Z,0.00
2022-11-17T04:43:37.176Z,0.00
2022-11-17T04:44:36.891Z,0.00
2022-11-17T04:45:37.211Z,0.00
2022-11-17T04:46:36.863Z,0.00
2022-11-17T04:47:36.839Z,0.00
2022-11-17T04:48:36.848Z,0.00
2022-11-17T04:49:36.831Z,0.00
2022-11-17T04:50:37.122Z,0.00
2022-11-17T04:51:36.798Z,0.00
2022-11-17T04:52:36.800Z,0.00
2022-11-17T04:53:37.063Z,0.00
2022-11-17T04:54:36.770Z,0.00
2022-11-17T04:55:36.766Z,0.00
2022-11-17T04:56:37.063Z,0.00
2022-11-17T04:57:36.721Z,0.00
2022-11-17T04:58:36.711Z,0.00
2022-11-17T04:59:36.715Z,0.00
2022-11-17T05:00:36.691Z,0.00
2022-11-17T05:01:36.685Z,0.00
2022-11-17T05:02:37.028Z,0.00
2022-11-17T05:03:36.935Z,0.00
2022-11-17T05:04:36.641Z,0.00
2022-11-17T05:05:36.633Z,0.00
2022-11-17T05:06:36.613Z,0.00
2022-11-17T05:07:36.912Z,0.00
2022-11-17T05:08:36.593Z,0.00
2022-11-17T05:09:36.602Z,0.00
2022-11-17T05:10:36.629Z,0.00
2022-11-17T05:11:36.818Z,0.00
2022-11-17T05:12:36.546Z,0.00
2022-11-17T05:13:37.004Z,0.00
2022-11-17T05:14:36.539Z,0.00
2022-11-17T05:15:36.539Z,0.00
2022-11-17T05:16:36.503Z,0.00
2022-11-17T05:17:36.829Z,0.00
2022-11-17T05:18:36.476Z,0.00
2022-11-17T05:19:36.491Z,0.00
2022-11-17T05:20:36.470Z,0.00
2022-11-17T05:21:36.449Z,0.00
2022-11-17T05:22:36.744Z,0.00
2022-11-17T05:23:36.918Z,0.00
2022-11-17T05:24:36.409Z,0.00
2022-11-17T05:25:36.421Z,0.00
2022-11-17T05:26:36.401Z,0.00
2022-11-17T05:27:36.392Z,0.00
2022-11-17T05:28:36.672Z,0.00
2022-11-17T05:29:36.371Z,0.00
2022-11-17T05:30:36.340Z,0.00
2022-11-17T05:31:36.342Z,0.00
2022-11-17T05:32:36.313Z,0.00
2022-11-17T05:33:37.954Z,0.00
2022-11-17T05:34:36.510Z,0.00
2022-11-17T05:35:36.304Z,0.00
2022-11-17T05:36:36.279Z,0.00
2022-11-17T05:37:36.273Z,0.00
2022-11-17T05:38:36.259Z,0.00
2022-11-17T05:39:36.523Z,0.00
2022-11-17T05:40:36.227Z,0.00
2022-11-17T05:41:36.224Z,0.00
2022-11-17T05:42:36.228Z,0.00
2022-11-17T05:43:36.541Z,0.00
2022-11-17T05:44:36.195Z,0.00
2022-11-17T05:45:36.385Z,0.00
2022-11-17T05:46:36.192Z,0.00
2022-11-17T05:47:36.153Z,0.00
2022-11-17T05:48:36.133Z,0.00
2022-11-17T05:49:36.137Z,0.00
2022-11-17T05:50:36.423Z,0.00
2022-11-17T05:51:36.116Z,0.00
2022-11-17T05:52:36.084Z,0.00
2022-11-17T05:53:36.372Z,0.00
2022-11-17T05:54:36.057Z,0.00
2022-11-17T05:55:36.329Z,0.00
2022-11-17T05:56:36.035Z,0.00
2022-11-17T05:57:36.028Z,0.00
2022-11-17T05:58:36.018Z,0.00
2022-11-17T05:59:36.018Z,0.00
2022-11-17T06:00:36.010Z,0.00
2022-11-17T06:01:36.295Z,0.00
2022-11-17T06:02:35.987Z,0.00
2022-11-17T06:03:36.204Z,0.00
2022-11-17T06:04:36.018Z,0.00
2022-11-17T06:05:35.950Z,0.00
2022-11-17T06:06:36.240Z,0.00
2022-11-17T06:07:35.954Z,0.00
2022-11-17T06:08:35.911Z,0.00
2022-11-17T06:09:35.900Z,0.00
2022-11-17T06:10:35.888Z,0.00
2022-11-17T06:11:35.883Z,0.00
2022-11-17T06:12:36.172Z,0.00
2022-11-17T06:13:36.177Z,0.00
2022-11-17T06:14:35.843Z,0.00
2022-11-17T06:15:35.831Z,0.00
2022-11-17T06:16:36.010Z,0.00
2022-11-17T06:17:35.799Z,0.00
2022-11-17T06:18:35.792Z,0.00
2022-11-17T06:19:35.772Z,0.00
2022-11-17T06:20:35.760Z,0.00
2022-11-17T06:22:04.375Z,0.00
2022-11-17T06:22:36.733Z,0.00
2022-11-17T06:23:36.032Z,0.00
2022-11-17T06:24:35.711Z,0.00
2022-11-17T06:25:35.726Z,0.00
2022-11-17T06:26:35.692Z,4.00
2022-11-17T06:27:36.007Z,4.00
2022-11-17T06:28:35.676Z,0.00
2022-11-17T06:29:38.249Z,0.00
2022-11-17T06:30:35.642Z,4.00
2022-11-17T06:31:35.669Z,4.00
2022-11-17T06:32:35.615Z,4.00
2022-11-17T06:33:36.233Z,4.00
2022-11-17T06:34:35.603Z,4.00
2022-11-17T06:35:35.608Z,4.00
2022-11-17T06:36:35.575Z,8.00
2022-11-17T06:37:35.566Z,8.00
2022-11-17T06:38:35.545Z,8.00
2022-11-17T06:39:35.820Z,8.00
2022-11-17T06:40:35.538Z,8.00
2022-11-17T06:41:35.528Z,12.00
2022-11-17T06:42:35.525Z,12.00
2022-11-17T06:43:35.988Z,12.00
2022-11-17T06:44:38.458Z,16.00
2022-11-17T06:45:35.680Z,24.00
2022-11-17T06:46:35.736Z,24.00
2022-11-17T06:47:35.466Z,20.00
2022-11-17T06:48:35.803Z,24.00
2022-11-17T06:49:35.426Z,28.00
2022-11-17T06:50:35.419Z,28.00
2022-11-17T06:51:35.399Z,28.00
2022-11-17T06:52:35.608Z,48.00
2022-11-17T06:53:35.732Z,52.00
2022-11-17T06:54:35.393Z,44.00
2022-11-17T06:55:35.395Z,40.00
2022-11-17T06:56:35.375Z,36.00
2022-11-17T06:57:35.377Z,52.00
2022-11-17T06:58:35.757Z,48.00
2022-11-17T06:59:35.581Z,40.00
2022-11-17T07:00:35.616Z,44.00
2022-11-17T07:01:35.329Z,56.00
2022-11-17T07:02:35.318Z,56.00
2022-11-17T07:03:35.691Z,52.00
2022-11-17T07:04:35.277Z,52.00
2022-11-17T07:05:35.278Z,68.00
2022-11-17T07:06:35.250Z,84.00
2022-11-17T07:07:35.619Z,92.00
2022-11-17T07:08:35.588Z,92.00
2022-11-17T07:09:35.232Z,92.00
2022-11-17T07:10:35.411Z,84.00
2022-11-17T07:11:35.212Z,80.00
2022-11-17T07:12:35.189Z,76.00
2022-11-17T07:13:35.191Z,72.00
2022-11-17T07:14:35.168Z,72.00
2022-11-17T07:15:35.171Z,76.00
2022-11-17T07:16:35.467Z,84.00
2022-11-17T07:17:35.143Z,92.00
2022-11-17T07:18:35.329Z,100.00
2022-11-17T07:19:35.140Z,116.00
2022-11-17T07:20:35.092Z,140.00
2022-11-17T07:21:35.092Z,160.00
2022-11-17T07:22:35.071Z,184.00
2022-11-17T07:23:35.072Z,208.00
2022-11-17T07:24:35.044Z,248.00
2022-11-17T07:25:35.382Z,268.00
2022-11-17T07:26:35.023Z,300.00
2022-11-17T07:27:35.024Z,332.00
2022-11-17T07:28:35.335Z,364.00
2022-11-17T07:29:35.205Z,392.00
2022-11-17T07:30:34.983Z,416.00
2022-11-17T07:31:34.986Z,432.00
2022-11-17T07:32:34.954Z,436.00
2022-11-17T07:33:34.985Z,420.00
2022-11-17T07:34:35.213Z,388.00
2022-11-17T07:35:34.947Z,376.00
2022-11-17T07:36:34.905Z,388.00
2022-11-17T07:37:34.905Z,392.00
2022-11-17T07:38:35.271Z,396.00
2022-11-17T07:39:35.196Z,372.00
2022-11-17T07:40:34.896Z,332.00
2022-11-17T07:41:34.857Z,324.00
2022-11-17T07:42:34.853Z,324.00
2022-11-17T07:43:34.831Z,352.00
2022-11-17T07:44:34.836Z,392.00
2022-11-17T07:45:34.817Z,460.00
2022-11-17T07:46:35.048Z,504.00
2022-11-17T07:47:34.784Z,496.00
2022-11-17T07:48:35.170Z,492.00
2022-11-17T07:49:34.758Z,552.00
2022-11-17T07:50:34.759Z,600.00
2022-11-17T07:51:35.050Z,648.00
2022-11-17T07:52:38.764Z,668.00
2022-11-17T07:53:35.719Z,664.00
2022-11-17T07:54:34.721Z,680.00
2022-11-17T07:55:34.698Z,672.00
2022-11-17T07:56:34.693Z,656.00
2022-11-17T07:57:34.691Z,604.00
2022-11-17T07:58:34.969Z,548.00
2022-11-17T07:59:34.649Z,540.00
2022-11-17T08:00:34.685Z,552.00
2022-11-17T08:01:34.930Z,540.00
2022-11-17T08:02:34.632Z,552.00
2022-11-17T08:03:34.637Z,568.00
2022-11-17T08:04:34.600Z,604.00
2022-11-17T08:05:39.940Z,692.00
2022-11-17T08:06:35.853Z,784.00
2022-11-17T08:07:34.609Z,868.00
2022-11-17T08:08:34.988Z,932.00
2022-11-17T08:09:34.541Z,916.00
2022-11-17T08:10:34.723Z,896.00
2022-11-17T08:11:34.502Z,1000.00
2022-11-17T08:12:34.502Z,1072.00
2022-11-17T08:13:34.513Z,1140.00
2022-11-17T08:14:34.485Z,1224.00
2022-11-17T08:15:35.154Z,1260.00
2022-11-17T08:16:34.477Z,1220.00
2022-11-17T08:17:34.437Z,1224.00
2022-11-17T08:18:34.970Z,1208.00
2022-11-17T08:19:34.418Z,1248.00
2022-11-17T08:20:34.405Z,1240.00
2022-11-17T08:21:34.386Z,1204.00
2022-11-17T08:22:34.385Z,1208.00
2022-11-17T08:23:34.364Z,1260.00
2022-11-17T08:24:34.385Z,1088.00
2022-11-17T08:25:34.356Z,1144.00
2022-11-17T08:26:34.342Z,1132.00
2022-11-17T08:27:34.316Z,1024.00
2022-11-17T08:28:34.774Z,984.00
2022-11-17T08:29:34.297Z,856.00
2022-11-17T08:30:34.495Z,860.00
2022-11-17T08:31:34.267Z,936.00
2022-11-17T08:32:34.279Z,980.00
2022-11-17T08:33:34.252Z,1012.00
2022-11-17T08:34:34.259Z,996.00
2022-11-17T08:35:37.397Z,808.00
2022-11-17T08:36:34.231Z,788.00
2022-11-17T08:37:34.199Z,740.00
2022-11-17T08:38:34.577Z,748.00
2022-11-17T08:39:34.180Z,652.00
2022-11-17T08:40:34.389Z,580.00
2022-11-17T08:41:34.158Z,628.00
2022-11-17T08:42:34.159Z,740.00
2022-11-17T08:43:34.130Z,1004.00
2022-11-17T08:44:34.132Z,1004.00
2022-11-17T08:45:34.331Z,948.00
2022-11-17T08:46:34.120Z,1088.00
2022-11-17T08:47:34.109Z,768.00
2022-11-17T08:48:34.464Z,644.00
2022-11-17T08:49:34.118Z,652.00
2022-11-17T08:50:34.062Z,528.00
2022-11-17T08:51:34.380Z,600.00
2022-11-17T08:52:34.062Z,688.00
2022-11-17T08:53:34.021Z,844.00
2022-11-17T08:54:34.019Z,988.00
2022-11-17T08:55:38.205Z,964.00
2022-11-17T08:56:35.301Z,888.00
2022-11-17T08:57:34.031Z,940.00
2022-11-17T08:58:34.349Z,968.00
2022-11-17T08:59:33.963Z,944.00
2022-11-17T09:00:33.929Z,1008.00
2022-11-17T09:01:33.989Z,1008.00
2022-11-17T09:02:34.238Z,972.00
2022-11-17T09:03:33.900Z,912.00
2022-11-17T09:04:40.910Z,844.00
2022-11-17T09:05:33.905Z,812.00
2022-11-17T09:06:33.860Z,808.00
2022-11-17T09:07:35.069Z,812.00
2022-11-17T09:08:49.366Z,804.00
2022-11-17T09:09:34.883Z,820.00
2022-11-17T09:10:33.830Z,796.00
2022-11-17T09:11:34.105Z,788.00
2022-11-17T09:12:33.808Z,816.00
2022-11-17T09:13:33.792Z,792.00
2022-11-17T09:14:33.764Z,728.00
2022-11-17T09:15:33.755Z,712.00
2022-11-17T09:16:33.760Z,716.00
2022-11-17T09:17:34.035Z,744.00
2022-11-17T09:18:34.018Z,764.00
2022-11-17T09:19:33.694Z,820.00
2022-11-17T09:20:33.694Z,868.00
2022-11-17T09:21:33.665Z,948.00
2022-11-17T09:22:33.674Z,1028.00
2022-11-17T09:23:33.883Z,1144.00
2022-11-17T09:24:33.645Z,1304.00
2022-11-17T09:25:33.649Z,1548.00
2022-11-17T09:26:33.663Z,1788.00
2022-11-17T09:27:33.620Z,1972.00
2022-11-17T09:28:33.840Z,2184.00
2022-11-17T09:29:33.587Z,2408.00
2022-11-17T09:30:33.617Z,2576.00
2022-11-17T09:31:33.935Z,2704.00
2022-11-17T09:32:33.556Z,2720.00
2022-11-17T09:33:33.552Z,2688.00
2022-11-17T09:34:33.584Z,2616.00
2022-11-17T09:35:33.517Z,2576.00
2022-11-17T09:36:33.813Z,2520.00
2022-11-17T09:37:33.502Z,2420.00
2022-11-17T09:38:33.928Z,2444.00
2022-11-17T09:39:33.483Z,2524.00
2022-11-17T09:40:37.814Z,2500.00
2022-11-17T09:41:33.458Z,2452.00
2022-11-17T09:42:33.640Z,2484.00
2022-11-17T09:43:33.434Z,2420.00
2022-11-17T09:44:33.412Z,2348.00
2022-11-17T09:45:33.411Z,2360.00
2022-11-17T09:46:33.414Z,2560.00
2022-11-17T09:47:33.595Z,2628.00
2022-11-17T09:48:41.172Z,2584.00
2022-11-17T09:49:34.365Z,2592.00
2022-11-17T09:50:33.352Z,2600.00
2022-11-17T09:51:33.336Z,2604.00
2022-11-17T09:52:33.532Z,2528.00
2022-11-17T09:53:33.699Z,2440.00
2022-11-17T09:54:33.292Z,2396.00
2022-11-17T09:55:34.537Z,2492.00
2022-11-17T09:56:33.277Z,2568.00
2022-11-17T09:57:33.453Z,2568.00
2022-11-17T09:58:33.729Z,2524.00
2022-11-17T09:59:33.224Z,2464.00
2022-11-17T10:00:33.248Z,2396.00
2022-11-17T10:01:33.204Z,2236.00
2022-11-17T10:02:33.605Z,2144.00
2022-11-17T10:03:33.339Z,2084.00
2022-11-17T10:04:33.199Z,2164.00
2022-11-17T10:05:33.177Z,2316.00
2022-11-17T10:06:33.173Z,2540.00
2022-11-17T10:07:33.417Z,2728.00
2022-11-17T10:08:33.419Z,2764.00
2022-11-17T10:09:33.106Z,2804.00
2022-11-17T10:10:33.121Z,2780.00
2022-11-17T10:11:33.100Z,2960.00
2022-11-17T10:12:33.103Z,3156.00
2022-11-17T10:13:33.711Z,3884.00
2022-11-17T10:14:33.081Z,3976.00
2022-11-17T10:15:33.062Z,3396.00
2022-11-17T10:16:33.042Z,3120.00
2022-11-17T10:17:33.033Z,3160.00
2022-11-17T10:18:37.684Z,3132.00
2022-11-17T10:19:34.265Z,3260.00
2022-11-17T10:20:32.991Z,3300.00
2022-11-17T10:21:32.987Z,3272.00
2022-11-17T10:22:32.960Z,3240.00
2022-11-17T10:23:33.137Z,3092.00
2022-11-17T10:24:33.214Z,2880.00
2022-11-17T10:25:32.945Z,3216.00
2022-11-17T10:26:32.924Z,3392.00
2022-11-17T10:27:32.920Z,2980.00
2022-11-17T10:28:32.957Z,2836.00
2022-11-17T10:29:32.885Z,3096.00
2022-11-17T10:30:33.147Z,2824.00
2022-11-17T10:31:32.864Z,2240.00
2022-11-17T10:32:32.868Z,2192.00
2022-11-17T10:33:33.155Z,2316.00
2022-11-17T10:34:38.847Z,2332.00
2022-11-17T10:35:33.881Z,2208.00
2022-11-17T10:36:32.791Z,2104.00
2022-11-17T10:37:32.805Z,2004.00
2022-11-17T10:38:32.811Z,1940.00
2022-11-17T10:39:32.779Z,1852.00
2022-11-17T10:40:32.779Z,1736.00
2022-11-17T10:41:33.102Z,1660.00
2022-11-17T10:42:32.730Z,1628.00
2022-11-17T10:43:32.825Z,1592.00
2022-11-17T10:44:32.696Z,1568.00
2022-11-17T10:45:32.724Z,1604.00
2022-11-17T10:46:43.092Z,1696.00
2022-11-17T10:47:33.991Z,1816.00
2022-11-17T10:48:32.928Z,1884.00
2022-11-17T10:49:32.656Z,1984.00
2022-11-17T10:50:32.641Z,2024.00
2022-11-17T10:51:32.642Z,2012.00
2022-11-17T10:52:32.597Z,2328.00
2022-11-17T10:53:32.753Z,2572.00
2022-11-17T10:54:32.610Z,2704.00
2022-11-17T10:55:32.579Z,2824.00
2022-11-17T10:56:32.563Z,2884.00
2022-11-17T10:57:32.566Z,3040.00
2022-11-17T10:58:32.628Z,3236.00
2022-11-17T10:59:32.544Z,3412.00
2022-11-17T11:00:32.835Z,3592.00
2022-11-17T11:01:32.578Z,3432.00
2022-11-17T11:02:32.483Z,2984.00
2022-11-17T11:03:33.075Z,2716.00
2022-11-17T11:04:32.773Z,2500.00
2022-11-17T11:05:32.498Z,2636.00
2022-11-17T11:06:32.474Z,3348.00
2022-11-17T11:07:32.449Z,3244.00
2022-11-17T11:08:32.411Z,2880.00
2022-11-17T11:09:32.414Z,2792.00
2022-11-17T11:10:32.727Z,2644.00
2022-11-17T11:11:36.269Z,2404.00
2022-11-17T11:12:32.377Z,1952.00
2022-11-17T11:13:32.353Z,1820.00
2022-11-17T11:14:32.355Z,1744.00
2022-11-17T11:15:32.544Z,1872.00
2022-11-17T11:16:32.478Z,1968.00
2022-11-17T11:17:32.329Z,2460.00
2022-11-17T11:18:32.285Z,2552.00
2022-11-17T11:19:32.620Z,2540.00
2022-11-17T11:20:32.278Z,2476.00
2022-11-17T11:21:32.516Z,2704.00
2022-11-17T11:22:32.281Z,2592.00
2022-11-17T11:23:32.259Z,2660.00
2022-11-17T11:24:32.216Z,2776.00
2022-11-17T11:25:32.450Z,2848.00
2022-11-17T11:26:32.199Z,2836.00
2022-11-17T11:27:32.195Z,2872.00
2022-11-17T11:28:32.167Z,2916.00
2022-11-17T11:29:32.473Z,2856.00
2022-11-17T11:30:32.147Z,2628.00
2022-11-17T11:31:32.146Z,2576.00
2022-11-17T11:32:32.118Z,2140.00
2022-11-17T11:33:32.135Z,1880.00
2022-11-17T11:34:32.114Z,1892.00
2022-11-17T11:35:32.473Z,1844.00
2022-11-17T11:36:32.387Z,1840.00
2022-11-17T11:37:32.078Z,2224.00
2022-11-17T11:38:32.065Z,2360.00
2022-11-17T11:39:32.367Z,2432.00
2022-11-17T11:40:32.045Z,2160.00
2022-11-17T11:41:32.320Z,2344.00
2022-11-17T11:42:31.998Z,2776.00
2022-11-17T11:43:32.003Z,3416.00
2022-11-17T11:44:31.972Z,3116.00
2022-11-17T11:45:32.012Z,3448.00
2022-11-17T11:46:32.212Z,3184.00
2022-11-17T11:47:31.975Z,2968.00
2022-11-17T11:48:31.931Z,3040.00
2022-11-17T11:49:32.132Z,2772.00
2022-11-17T11:50:31.927Z,2524.00
2022-11-17T11:51:31.928Z,2248.00
2022-11-17T11:52:31.894Z,1940.00
2022-11-17T11:53:31.883Z,1696.00
2022-11-17T11:54:31.884Z,2508.00
2022-11-17T11:55:31.894Z,2388.00
2022-11-17T11:56:31.845Z,1980.00
2022-11-17T11:57:31.861Z,1716.00
2022-11-17T11:58:31.831Z,1756.00
2022-11-17T11:59:31.840Z,1880.00
2022-11-17T12:00:31.810Z,2176.00
2022-11-17T12:01:31.808Z,2288.00
2022-11-17T12:02:31.886Z,2092.00
2022-11-17T12:03:31.852Z,2208.00
2022-11-17T12:04:31.779Z,2368.00
2022-11-17T12:05:31.772Z,2300.00
2022-11-17T12:06:31.718Z,2316.00
2022-11-17T12:07:31.776Z,2320.00
2022-11-17T12:08:31.714Z,2024.00
2022-11-17T12:09:31.715Z,1852.00
2022-11-17T12:10:31.878Z,1892.00
2022-11-17T12:11:31.678Z,1728.00
2022-11-17T12:12:31.648Z,2072.00
2022-11-17T12:13:31.650Z,2308.00
2022-11-17T12:14:31.642Z,2100.00
2022-11-17T12:15:31.618Z,2172.00
2022-11-17T12:16:31.633Z,2240.00
2022-11-17T12:17:31.623Z,2276.00
2022-11-17T12:18:31.584Z,2088.00
2022-11-17T12:19:31.569Z,1832.00
2022-11-17T12:20:31.574Z,1576.00
2022-11-17T12:21:31.550Z,1456.00
2022-11-17T12:22:31.548Z,1480.00
2022-11-17T12:23:31.741Z,1624.00
2022-11-17T12:24:31.516Z,1788.00
2022-11-17T12:25:31.501Z,1896.00
2022-11-17T12:26:31.494Z,2104.00
2022-11-17T12:27:31.482Z,2432.00
2022-11-17T12:28:31.679Z,2780.00
2022-11-17T12:29:32.339Z,3036.00
2022-11-17T12:30:31.448Z,3092.00
2022-11-17T12:31:31.433Z,3124.00
2022-11-17T12:32:31.404Z,3120.00
2022-11-17T12:33:31.658Z,3132.00
2022-11-17T12:34:31.381Z,2828.00
2022-11-17T12:35:31.428Z,2396.00
2022-11-17T12:36:31.546Z,2316.00
2022-11-17T12:37:31.367Z,2464.00
2022-11-17T12:38:31.349Z,2868.00
2022-11-17T12:39:31.550Z,2740.00
2022-11-17T12:40:31.323Z,2644.00
2022-11-17T12:41:31.387Z,2592.00
2022-11-17T12:42:31.300Z,2608.00
2022-11-17T12:43:31.294Z,2088.00
2022-11-17T12:44:31.302Z,1832.00
2022-11-17T12:45:31.301Z,1756.00
2022-11-17T12:46:31.263Z,1864.00
2022-11-17T12:47:31.245Z,2408.00
2022-11-17T12:48:34.379Z,3100.00